Time;durP1;ratioP1;P1;durP2;ratioP2;P2;SDS_P1;SDS_P2;PMS_P1;PMS_P2;Temp;Humidity;BMP_temperature;BMP_pressure;BME280_temperature;BME280_humidity;BME280_pressure;Samples;Min_cycle;Max_cycle;Signal;HPM_P1;HPM_P2
2022/08/27 00:01:42;;;;;;;4.22;2.25;;;;;;;25.28;47.90;101763.47;4994176;28;20046;-69
2022/08/27 00:04:07;;;;;;;5.68;2.70;;;;;;;25.24;48.07;101764.88;4991892;28;20057;-69
2022/08/27 00:06:34;;;;;;;3.88;2.00;;;;;;;25.27;48.25;101762.63;4999072;28;20050;-69
2022/08/27 00:09:01;;;;;;;5.30;2.70;;;;;;;25.28;48.16;101763.47;4992108;28;20042;-69
2022/08/27 00:11:27;;;;;;;3.72;2.20;;;;;;;25.28;48.02;101763.47;4990283;28;20171;-69
2022/08/27 00:13:53;;;;;;;5.93;2.45;;;;;;;25.32;48.07;101756.75;4994752;28;20041;-69
2022/08/27 00:16:19;;;;;;;4.35;2.40;;;;;;;25.31;47.87;101757.72;4994305;28;20042;-69
2022/08/27 00:18:46;;;;;;;5.63;2.20;;;;;;;25.26;48.06;101757.50;4993681;28;20050;-69
2022/08/27 00:21:12;;;;;;;4.97;2.15;;;;;;;25.24;48.25;101755.03;4994984;28;20096;-69
2022/08/27 00:23:38;;;;;;;3.55;2.42;;;;;;;25.26;48.05;101758.31;4992482;28;20093;-70
2022/08/27 00:26:06;;;;;;;5.03;2.67;;;;;;;25.19;48.22;101748.63;4996531;28;20065;-69
2022/08/27 00:28:33;;;;;;;5.47;2.53;;;;;;;25.27;48.09;101749.31;4995914;28;20185;-69
2022/08/27 00:30:59;;;;;;;5.15;2.80;;;;;;;25.25;47.87;101740.69;4995468;28;20040;-68
2022/08/27 00:33:25;;;;;;;8.00;2.78;;;;;;;25.22;48.22;101743.75;4988294;28;20046;-68
2022/08/27 00:35:51;;;;;;;5.63;2.35;;;;;;;25.17;48.17;101743.50;4997234;28;20499;-68
2022/08/27 00:38:18;;;;;;;4.53;2.10;;;;;;;25.20;48.05;101745.78;4996434;28;20061;-70
2022/08/27 00:40:44;;;;;;;4.05;2.28;;;;;;;25.18;48.01;101739.00;4995040;28;20041;-71
2022/08/27 00:43:10;;;;;;;3.78;2.30;;;;;;;25.22;47.77;101738.41;4997058;28;20070;-70
2022/08/27 00:45:38;;;;;;;8.60;2.83;;;;;;;25.24;47.86;101740.88;4991809;28;20045;-68
2022/08/27 00:48:07;;;;;;;4.65;2.58;;;;;;;25.25;48.03;101742.53;4981513;28;20168;-73
2022/08/27 00:50:38;;;;;;;5.10;2.47;;;;;;;25.22;47.91;101745.59;4998889;28;20026;-71
2022/08/27 00:53:22;;;;;;;3.63;2.50;;;;;;;25.27;47.82;101751.16;4995987;28;20129;-71
2022/08/27 00:56:14;;;;;;;6.22;2.67;;;;;;;25.28;48.11;101756.28;4992354;28;20108;-73
2022/08/27 00:58:46;;;;;;;3.40;2.45;;;;;;;25.23;47.95;101750.72;4992135;28;20073;-71
2022/08/27 01:01:16;;;;;;;5.85;2.60;;;;;;;25.28;47.87;101755.47;4997340;28;20045;-71
2022/08/27 01:03:46;;;;;;;4.35;2.45;;;;;;;25.25;47.96;101750.53;4991551;28;20038;-71
2022/08/27 01:06:14;;;;;;;5.78;2.42;;;;;;;25.26;48.13;101752.16;4993247;28;20053;-73
2022/08/27 01:08:45;;;;;;;6.25;2.60;;;;;;;25.26;48.20;101752.16;4993700;28;20054;-73
2022/08/27 01:11:11;;;;;;;6.82;2.60;;;;;;;25.25;47.90;101748.69;4997191;28;20092;-72
2022/08/27 01:13:41;;;;;;;4.50;2.40;;;;;;;25.23;48.16;101745.38;4995039;28;20156;-71
2022/08/27 01:16:10;;;;;;;6.47;2.42;;;;;;;25.22;48.03;101740.25;4995455;28;20046;-71
2022/08/27 01:18:37;;;;;;;4.15;2.60;;;;;;;25.26;48.30;101738.84;4992754;28;20062;-73
2022/08/27 01:21:21;;;;;;;4.72;2.72;;;;;;;25.25;48.08;101745.19;4988959;28;20072;-73
2022/08/27 01:24:09;;;;;;;6.38;2.60;;;;;;;25.23;48.15;101752.56;4978622;28;20913;-73
2022/08/27 01:26:35;;;;;;;5.20;2.40;;;;;;;25.28;47.92;101737.63;4996397;28;20053;-73
2022/08/27 01:29:02;;;;;;;4.18;2.45;;;;;;;25.28;47.85;101748.28;4993214;28;20034;-73
2022/08/27 01:31:28;;;;;;;4.60;2.47;;;;;;;25.30;47.67;101740.91;4995897;28;20470;-71
2022/08/27 01:33:57;;;;;;;7.15;2.58;;;;;;;25.18;47.89;101737.16;4995784;28;21417;-72
2022/08/27 01:36:23;;;;;;;5.72;2.67;;;;;;;25.18;48.10;101745.16;4974802;28;20050;-71
2022/08/27 01:38:49;;;;;;;8.88;2.72;;;;;;;25.24;47.88;101749.69;4988880;28;20168;-72
2022/08/27 01:41:14;;;;;;;5.22;2.88;;;;;;;25.27;48.00;101754.63;4998739;28;20034;-73
2022/08/27 01:43:40;;;;;;;5.50;2.80;;;;;;;25.23;47.84;101756.03;5000010;28;20083;-70
2022/08/27 01:46:05;;;;;;;4.97;2.90;;;;;;;25.19;48.11;101749.47;4997970;28;20752;-72
2022/08/27 01:48:31;;;;;;;6.85;3.40;;;;;;;25.19;48.20;101749.47;4982133;28;20114;-73
2022/08/27 01:50:56;;;;;;;6.78;2.70;;;;;;;25.22;47.81;101748.25;4998505;28;20472;-71
2022/08/27 01:53:25;;;;;;;4.90;2.65;;;;;;;25.19;47.94;101754.78;4975599;28;20045;-72
2022/08/27 01:55:52;;;;;;;6.90;2.90;;;;;;;25.19;47.87;101741.47;4998658;28;20037;-72
2022/08/27 01:58:21;;;;;;;5.85;2.97;;;;;;;25.17;48.19;101746.16;4996322;28;20045;-72
2022/08/27 02:00:51;;;;;;;3.70;2.50;;;;;;;25.20;47.87;101742.28;4996045;28;20041;-72
2022/08/27 02:03:17;;;;;;;5.35;2.90;;;;;;;25.21;47.75;101750.09;4996593;28;20046;-72
2022/08/27 02:05:45;;;;;;;5.22;3.15;;;;;;;25.18;47.69;101747.81;4996824;28;20772;-72
2022/08/27 02:08:12;;;;;;;7.10;3.08;;;;;;;25.25;47.86;101746.00;4998430;28;20033;-72
2022/08/27 02:10:39;;;;;;;4.75;2.70;;;;;;;25.21;48.01;101733.28;4990885;28;20427;-73
2022/08/27 02:13:08;;;;;;;7.60;2.78;;;;;;;25.25;47.86;101739.84;4998783;28;20530;-73
2022/08/27 02:15:35;;;;;;;5.00;2.90;;;;;;;25.26;47.86;101745.00;4998251;28;20033;-72
2022/08/27 02:18:02;;;;;;;6.65;3.03;;;;;;;25.21;47.76;101749.25;4996723;28;20061;-72
2022/08/27 02:20:28;;;;;;;6.22;2.80;;;;;;;25.28;47.78;101744.78;4981844;28;20229;-72
2022/08/27 02:22:54;;;;;;;4.32;2.70;;;;;;;25.21;47.76;101739.44;5000687;28;20057;-72
2022/08/27 02:25:20;;;;;;;6.05;3.15;;;;;;;25.24;47.95;101748.88;4994404;28;20103;-72
2022/08/27 02:27:47;;;;;;;7.15;3.35;;;;;;;25.22;47.99;101741.06;4992078;28;20740;-72
2022/08/27 02:30:16;;;;;;;4.18;2.35;;;;;;;25.29;47.88;101736.59;4991545;28;20384;-71
2022/08/27 02:32:45;;;;;;;5.97;3.10;;;;;;;25.24;47.55;101739.03;4997482;28;20692;-71
2022/08/27 02:35:12;;;;;;;5.75;3.00;;;;;;;25.25;47.93;101739.84;4980392;28;20498;-71
2022/08/27 02:37:38;;;;;;;6.35;2.70;;;;;;;25.20;47.98;101734.28;4998117;28;20037;-71
2022/08/27 02:40:05;;;;;;;5.57;2.78;;;;;;;25.23;48.05;101739.22;4980371;28;20494;-71
2022/08/27 02:42:31;;;;;;;4.80;3.05;;;;;;;25.19;47.71;101735.31;4990626;28;20042;-71
2022/08/27 02:44:56;;;;;;;4.13;2.53;;;;;;;25.14;48.11;101735.06;4991269;28;20049;-71
2022/08/27 02:47:22;;;;;;;3.47;2.50;;;;;;;25.20;47.94;101744.94;4979293;28;20046;-71
2022/08/27 02:49:48;;;;;;;7.20;2.60;;;;;;;25.23;47.71;101739.22;4998556;28;20123;-72
2022/08/27 02:52:15;;;;;;;5.93;2.75;;;;;;;25.17;47.91;101734.69;4998833;28;20054;-72
2022/08/27 02:54:41;;;;;;;5.25;2.72;;;;;;;25.23;47.73;101737.38;4994790;28;20907;-74
2022/08/27 02:57:06;;;;;;;5.80;2.80;;;;;;;25.23;47.73;101734.72;4997312;28;20151;-71
2022/08/27 02:59:32;;;;;;;8.48;3.28;;;;;;;25.18;47.80;101736.31;4962952;28;20037;-73
2022/08/27 03:01:57;;;;;;;6.55;2.92;;;;;;;25.18;47.73;101741.66;4994803;28;20049;-73
2022/08/27 03:04:23;;;;;;;4.40;3.00;;;;;;;25.24;47.84;101743.53;4993785;28;20084;-73
2022/08/27 03:06:48;;;;;;;4.53;3.05;;;;;;;25.22;48.04;101742.91;4999625;28;20069;-73
2022/08/27 03:09:14;;;;;;;5.40;3.00;;;;;;;25.18;47.85;101737.16;4995379;28;20865;-73
2022/08/27 03:11:40;;;;;;;5.10;2.90;;;;;;;25.12;48.13;101735.25;4965048;28;21816;-73
2022/08/27 03:14:06;;;;;;;5.10;2.88;;;;;;;25.22;47.89;101741.06;4995149;28;20042;-73
2022/08/27 03:16:36;;;;;;;4.47;2.75;;;;;;;25.11;48.24;101732.78;4988962;28;20042;-73
2022/08/27 03:19:05;;;;;;;5.75;3.00;;;;;;;25.15;47.69;101724.22;4976897;28;20105;-73
2022/08/27 03:21:31;;;;;;;4.13;2.83;;;;;;;25.21;47.65;101739.44;4996943;28;20455;-73
2022/08/27 03:23:57;;;;;;;5.38;2.80;;;;;;;25.20;47.90;101740.44;4998638;28;20034;-73
2022/08/27 03:26:22;;;;;;;7.07;2.70;;;;;;;25.15;47.98;101740.22;4996794;28;20045;-73
2022/08/27 03:28:48;;;;;;;5.00;2.83;;;;;;;25.11;47.83;101735.44;4996135;28;20046;-73
2022/08/27 03:31:25;;;;;;;4.40;3.17;;;;;;;25.15;47.89;101744.72;4967994;28;20054;-74
2022/08/27 03:33:53;;;;;;;5.55;2.83;;;;;;;25.15;47.89;101744.72;4998423;28;20037;-73
2022/08/27 03:36:18;;;;;;;4.28;2.60;;;;;;;25.13;47.88;101739.56;4996818;28;20049;-73
2022/08/27 03:38:44;;;;;;;5.55;3.70;;;;;;;25.14;47.90;101743.91;4997751;28;20384;-72
2022/08/27 03:41:09;;;;;;;6.90;2.83;;;;;;;25.23;47.70;101739.22;4996737;28;20969;-73
2022/08/27 03:43:35;;;;;;;6.18;2.78;;;;;;;25.15;47.85;101739.38;4995562;28;20138;-72
2022/08/27 03:46:01;;;;;;;6.00;2.95;;;;;;;25.12;47.81;101737.91;4996350;28;20076;-73
2022/08/27 03:48:27;;;;;;;4.28;2.65;;;;;;;25.17;47.76;101740.84;4981907;28;20083;-73
2022/08/27 03:50:53;;;;;;;6.15;2.83;;;;;;;25.09;47.97;101724.16;4994853;28;20148;-73
2022/08/27 03:53:19;;;;;;;4.47;2.47;;;;;;;25.09;47.86;101727.63;4973486;28;20073;-73
2022/08/27 03:55:46;;;;;;;4.75;2.47;;;;;;;25.16;47.82;101739.19;4994828;28;20041;-73
2022/08/27 03:58:13;;;;;;;4.75;2.67;;;;;;;25.15;47.85;101740.22;4996287;28;20037;-73
2022/08/27 04:00:40;;;;;;;4.90;2.85;;;;;;;25.18;47.69;101736.31;4993859;28;20796;-73
2022/08/27 04:03:06;;;;;;;4.45;2.50;;;;;;;25.17;47.64;101729.34;4994496;28;20646;-73
2022/08/27 04:05:33;;;;;;;6.07;2.75;;;;;;;25.15;47.86;101729.53;4994694;28;20460;-73
2022/08/27 04:07:58;;;;;;;4.65;2.75;;;;;;;25.14;47.71;101730.56;4994991;28;20050;-72
2022/08/27 04:10:24;;;;;;;5.55;2.83;;;;;;;25.10;47.99;101726.63;4996951;28;20046;-73
2022/08/27 04:12:50;;;;;;;5.90;3.20;;;;;;;25.11;47.68;101719.44;4992420;28;20048;-74
2022/08/27 04:15:15;;;;;;;5.18;3.22;;;;;;;25.14;47.77;101716.41;4993563;28;20601;-72
2022/08/27 04:17:41;;;;;;;5.00;2.42;;;;;;;25.17;47.73;101734.69;4996001;28;20045;-72
2022/08/27 04:20:08;;;;;;;4.43;2.70;;;;;;;25.09;47.94;101719.63;4983652;28;20573;-72
2022/08/27 04:22:34;;;;;;;5.30;2.58;;;;;;;25.12;47.74;101724.56;4996936;28;20038;-72
2022/08/27 04:25:00;;;;;;;5.47;2.50;;;;;;;25.13;47.90;101725.41;4993026;28;22445;-72
2022/08/27 04:27:27;;;;;;;5.43;3.20;;;;;;;25.16;47.75;101719.72;4995320;28;20048;-72
2022/08/27 04:29:57;;;;;;;5.30;2.75;;;;;;;25.08;47.73;101720.66;4994085;28;20073;-73
2022/08/27 04:32:27;;;;;;;8.23;3.20;;;;;;;25.12;47.63;101727.25;4995634;28;20038;-72
2022/08/27 04:34:57;;;;;;;7.05;3.08;;;;;;;25.08;47.77;101719.84;4990004;28;20124;-72
2022/08/27 04:37:24;;;;;;;4.75;2.70;;;;;;;25.18;47.60;101729.16;4976659;28;20073;-71
2022/08/27 04:39:50;;;;;;;4.10;2.50;;;;;;;25.11;47.81;101730.94;4994898;28;20085;-71
2022/08/27 04:42:18;;;;;;;3.65;2.47;;;;;;;25.14;47.82;101727.91;4996961;28;20045;-71
2022/08/27 04:44:45;;;;;;;5.43;2.75;;;;;;;25.08;47.83;101730.50;4977144;28;20049;-72
2022/08/27 04:47:12;;;;;;;3.00;2.47;;;;;;;25.11;47.65;101727.44;4976706;28;20204;-71
2022/08/27 04:49:38;;;;;;;5.90;2.95;;;;;;;25.06;48.17;101721.88;4996569;28;20041;-72
2022/08/27 04:52:04;;;;;;;5.20;2.42;;;;;;;25.09;47.93;101718.81;4992850;28;20045;-72
2022/08/27 04:54:30;;;;;;;3.95;2.70;;;;;;;25.09;47.59;101719.63;4991226;28;20383;-73
2022/08/27 04:56:56;;;;;;;5.32;2.85;;;;;;;24.97;47.76;101711.34;4995429;28;20045;-71
2022/08/27 04:59:21;;;;;;;5.32;2.70;;;;;;;25.11;47.70;101730.09;4996448;28;20045;-71
2022/08/27 05:01:47;;;;;;;4.90;2.70;;;;;;;25.09;47.89;101729.47;4994099;28;20029;-71
2022/08/27 05:04:14;;;;;;;5.38;2.80;;;;;;;25.07;48.03;101723.53;4989633;28;20092;-71
2022/08/27 05:06:43;;;;;;;4.20;2.60;;;;;;;25.09;47.93;101732.13;4992869;28;20096;-71
2022/08/27 05:09:08;;;;;;;5.03;2.53;;;;;;;25.11;47.86;101725.59;4987129;28;20314;-71
2022/08/27 05:11:36;;;;;;;7.78;2.88;;;;;;;25.14;47.63;101727.09;4997156;28;20855;-71
2022/08/27 05:14:07;;;;;;;3.85;2.70;;;;;;;25.07;47.81;101727.00;4994597;28;20104;-72
2022/08/27 05:16:43;;;;;;;4.45;2.60;;;;;;;25.07;47.82;101721.69;5001022;28;20040;-72
2022/08/27 05:19:13;;;;;;;4.57;2.70;;;;;;;25.12;47.78;101731.75;4998041;28;20740;-71
2022/08/27 05:21:44;;;;;;;4.50;2.42;;;;;;;25.08;47.83;101722.50;4996496;28;20563;-71
2022/08/27 05:24:10;;;;;;;4.72;2.47;;;;;;;25.10;47.83;101739.13;5000675;28;20390;-73
2022/08/27 05:26:36;;;;;;;4.35;2.90;;;;;;;25.07;47.71;101728.84;4988954;28;20037;-70
2022/08/27 05:29:04;;;;;;;3.38;2.65;;;;;;;25.06;48.07;101725.38;4997225;28;20566;-70
2022/08/27 05:31:30;;;;;;;3.72;2.47;;;;;;;25.11;47.80;101732.78;4999994;28;20411;-68
2022/08/27 05:33:55;;;;;;;5.80;2.80;;;;;;;25.08;47.57;101730.50;5001323;28;20100;-69
2022/08/27 05:36:28;;;;;;;3.35;2.20;;;;;;;25.11;47.82;101738.09;4999284;28;20037;-71
2022/08/27 05:38:54;;;;;;;4.63;2.80;;;;;;;25.06;47.61;101732.53;4982266;28;20041;-71
2022/08/27 05:41:26;;;;;;;4.72;2.78;;;;;;;25.09;47.65;101735.63;4993485;28;21904;-69
2022/08/27 05:43:53;;;;;;;4.05;2.65;;;;;;;25.16;47.56;101743.69;4998406;28;20038;-70
2022/08/27 05:46:21;;;;;;;3.83;2.60;;;;;;;25.19;47.30;101743.31;4998612;28;20148;-71
2022/08/27 05:48:47;;;;;;;3.65;2.40;;;;;;;25.13;47.66;101746.72;4995696;28;20104;-70
2022/08/27 05:51:17;;;;;;;3.83;2.55;;;;;;;25.12;47.63;101740.56;4982495;28;20030;-70
2022/08/27 05:53:43;;;;;;;5.68;2.33;;;;;;;25.12;47.71;101745.06;4982472;28;20065;-70
2022/08/27 05:56:29;;;;;;;3.78;2.10;;;;;;;25.14;47.57;101737.75;4980621;28;20045;-70
2022/08/27 06:01:46;;;;;;;4.40;2.50;;;;;;;25.20;47.30;101745.78;4999917;28;20033;-68
2022/08/27 06:04:13;;;;;;;3.63;2.53;;;;;;;25.14;47.32;101746.56;4997364;28;20083;-68
2022/08/27 06:06:41;;;;;;;6.57;3.22;;;;;;;25.20;47.44;101742.28;4996861;28;20391;-70
2022/08/27 06:09:08;;;;;;;3.42;2.42;;;;;;;25.17;47.51;101740.84;4984607;28;20567;-70
2022/08/27 06:11:35;;;;;;;5.57;2.92;;;;;;;25.19;47.36;101732.66;4995429;28;20372;-68
2022/08/27 06:14:01;;;;;;;5.00;2.92;;;;;;;25.13;47.36;101739.56;4986801;28;20044;-70
2022/08/27 06:16:26;;;;;;;5.43;2.60;;;;;;;25.11;47.43;101744.25;5001726;28;20509;-70
2022/08/27 06:18:53;;;;;;;4.75;2.85;;;;;;;25.23;47.25;101752.56;4999831;28;20143;-70
2022/08/27 06:21:19;;;;;;;3.50;2.50;;;;;;;25.14;47.17;101745.72;5008355;28;20050;-70
2022/08/27 06:23:46;;;;;;;6.00;2.50;;;;;;;25.23;47.23;101742.72;5000028;28;20045;-70
2022/08/27 06:26:14;;;;;;;4.75;2.50;;;;;;;25.24;47.19;101741.69;4999412;28;20125;-70
2022/08/27 06:28:40;;;;;;;4.35;2.70;;;;;;;25.20;47.10;101744.94;4993628;28;20087;-70
2022/08/27 06:31:12;;;;;;;3.92;2.30;;;;;;;25.23;47.12;101744.56;4992243;28;20037;-71
2022/08/27 06:33:39;;;;;;;4.28;2.67;;;;;;;25.28;46.80;101750.13;4998015;28;20036;-71
2022/08/27 06:36:08;;;;;;;4.97;2.70;;;;;;;25.30;46.81;101751.56;5003302;28;20045;-71
2022/08/27 06:38:34;;;;;;;4.70;2.78;;;;;;;25.26;46.68;101754.84;4995653;28;20061;-70
2022/08/27 06:41:05;;;;;;;5.30;2.60;;;;;;;25.24;47.11;101763.03;4995735;28;20057;-70
2022/08/27 06:43:34;;;;;;;5.85;2.70;;;;;;;25.28;47.12;101760.78;4996306;28;20542;-70
2022/08/27 06:46:09;;;;;;;3.50;2.65;;;;;;;25.26;46.85;101758.31;4995014;28;20595;-70
2022/08/27 06:48:35;;;;;;;2.88;2.33;;;;;;;25.32;46.67;101762.06;4996208;28;20049;-71
2022/08/27 06:51:11;;;;;;;6.22;2.80;;;;;;;25.34;46.86;101765.38;4997040;28;21252;-70
2022/08/27 06:53:36;;;;;;;6.55;2.60;;;;;;;25.36;46.57;101770.50;4999091;28;20060;-71
2022/08/27 06:56:04;;;;;;;5.38;3.17;;;;;;;25.27;46.71;101772.47;4997103;28;20488;-71
2022/08/27 06:58:30;;;;;;;5.05;2.35;;;;;;;25.31;46.57;101771.06;4998973;28;20038;-71
2022/08/27 07:00:55;;;;;;;3.72;2.53;;;;;;;25.20;47.04;101774.28;4995508;28;21060;-70
2022/08/27 07:03:21;;;;;;;6.75;3.15;;;;;;;25.22;46.95;101773.06;4983775;28;20104;-71
2022/08/27 07:05:46;;;;;;;4.15;2.20;;;;;;;25.15;46.71;101753.53;4982026;28;20085;-71
2022/08/27 07:08:11;;;;;;;4.25;2.42;;;;;;;25.24;46.68;101776.34;4998439;28;20053;-70
2022/08/27 07:10:37;;;;;;;6.13;2.90;;;;;;;25.25;46.18;101775.34;5003392;28;20111;-70
2022/08/27 07:13:03;;;;;;;6.50;2.60;;;;;;;25.22;46.30;101767.72;4996351;28;20076;-71
2022/08/27 07:15:29;;;;;;;6.32;2.70;;;;;;;25.28;46.25;101779.44;4998902;28;20077;-72
2022/08/27 07:17:54;;;;;;;9.20;2.55;;;;;;;25.22;46.06;101769.56;4990134;28;20610;-71
2022/08/27 07:20:21;;;;;;;6.25;2.95;;;;;;;25.29;45.92;101781.91;4980645;28;20049;-70
2022/08/27 07:22:47;;;;;;;6.32;2.90;;;;;;;25.25;46.00;101783.34;4995866;28;20132;-71
2022/08/27 07:25:18;;;;;;;4.70;2.70;;;;;;;25.26;45.82;101787.66;4997934;28;20042;-71
2022/08/27 07:27:43;;;;;;;6.32;2.97;;;;;;;25.33;45.55;101784.22;4997458;28;20357;-71
2022/08/27 07:30:11;;;;;;;6.00;3.00;;;;;;;25.34;45.34;101791.22;4999317;28;20073;-70
2022/08/27 07:32:38;;;;;;;6.97;2.47;;;;;;;25.27;45.77;101783.97;4994527;28;20099;-71
2022/08/27 07:35:08;;;;;;;7.70;3.22;;;;;;;25.36;45.39;101783.84;4992856;28;20035;-70
2022/08/27 07:37:37;;;;;;;7.15;2.72;;;;;;;25.36;45.76;101783.84;4998641;28;20496;-70
2022/08/27 07:40:05;;;;;;;8.15;3.20;;;;;;;25.35;45.82;101788.34;5000228;28;20897;-71
2022/08/27 07:45:15;;;;;;;4.32;2.58;;;;;;;25.36;45.71;101794.50;4996601;28;20042;-71
2022/08/27 07:47:43;;;;;;;6.40;2.67;;;;;;;25.35;46.02;101790.19;4996113;28;20048;-70
2022/08/27 07:50:09;;;;;;;6.82;2.63;;;;;;;25.38;46.10;101787.13;4994080;28;20049;-71
2022/08/27 07:52:34;;;;;;;4.20;2.53;;;;;;;25.34;46.27;101789.38;4978574;28;20034;-71
2022/08/27 07:55:00;;;;;;;4.72;2.67;;;;;;;25.33;46.21;101798.38;5001710;28;20034;-71
2022/08/27 07:57:26;;;;;;;3.35;2.35;;;;;;;25.39;45.96;101796.78;4979862;28;20676;-71
2022/08/27 07:59:54;;;;;;;10.90;2.90;;;;;;;25.37;46.24;101788.16;4995193;28;20822;-71
2022/08/27 08:02:19;;;;;;;6.35;2.47;;;;;;;25.33;45.98;101792.22;4998252;28;20049;-71
2022/08/27 08:04:46;;;;;;;5.70;2.78;;;;;;;25.33;45.94;101792.22;4996566;28;20034;-68
2022/08/27 08:07:11;;;;;;;9.30;3.13;;;;;;;25.09;45.53;101788.94;4980986;28;20116;-73
2022/08/27 08:09:37;;;;;;;8.23;2.97;;;;;;;25.24;45.68;101802.19;4996985;28;20570;-74
2022/08/27 08:12:03;;;;;;;6.00;2.55;;;;;;;25.33;45.35;101795.72;5002762;28;20112;-74
2022/08/27 08:14:30;;;;;;;5.95;2.50;;;;;;;25.40;45.37;101798.41;4999711;28;20029;-73
2022/08/27 08:17:00;;;;;;;6.35;2.53;;;;;;;25.53;45.28;101799.34;4999375;28;20046;-73
2022/08/27 08:19:27;;;;;;;4.93;2.58;;;;;;;25.58;45.39;101801.44;5002549;28;20081;-73
2022/08/27 08:21:53;;;;;;;7.15;2.65;;;;;;;25.58;45.18;101802.25;5003860;28;20033;-73
2022/08/27 08:24:18;;;;;;;7.75;2.70;;;;;;;25.63;45.10;101801.66;5003649;28;20042;-72
2022/08/27 08:26:44;;;;;;;9.93;2.75;;;;;;;25.61;45.41;101806.38;5000687;28;20052;-73
2022/08/27 08:29:11;;;;;;;8.68;2.42;;;;;;;25.67;45.42;101802.91;5000169;28;20048;-73
2022/08/27 08:31:36;;;;;;;7.53;3.05;;;;;;;25.68;45.33;101807.28;4997530;28;20052;-73
2022/08/27 08:34:02;;;;;;;7.90;2.53;;;;;;;25.65;45.44;101809.47;4998742;28;21516;-74
2022/08/27 08:36:28;;;;;;;7.45;2.80;;;;;;;25.63;45.17;101809.66;4979099;28;20046;-74
2022/08/27 08:38:54;;;;;;;7.32;2.60;;;;;;;25.66;44.96;101808.44;4998193;28;20069;-74
2022/08/27 08:42:04;;;;;;;5.13;2.65;;;;;;;25.64;44.80;101811.31;4995695;28;20056;-71
2022/08/27 08:44:34;;;;;;;4.75;2.28;;;;;;;25.61;45.20;101809.03;4991084;28;21915;-71
2022/08/27 08:47:11;;;;;;;11.48;2.53;;;;;;;25.63;44.95;101809.66;4997145;28;20403;-71
2022/08/27 08:49:56;;;;;;;5.60;2.55;;;;;;;25.62;44.91;101816.00;4997027;28;20500;-71
2022/08/27 08:52:36;;;;;;;10.00;2.70;;;;;;;25.63;45.09;101812.34;4995916;28;20033;-72
2022/08/27 08:55:31;;;;;;;9.35;3.00;;;;;;;25.62;44.85;101816.00;4996995;28;20140;-71
2022/08/27 08:58:10;;;;;;;6.03;2.65;;;;;;;25.65;44.86;101822.81;4992612;28;20041;-71
2022/08/27 09:00:38;;;;;;;7.20;2.67;;;;;;;25.65;44.76;101826.28;4985286;28;20034;-71
2022/08/27 09:03:04;;;;;;;6.10;2.55;;;;;;;25.63;45.09;101824.84;4999629;28;20038;-71
2022/08/27 09:05:29;;;;;;;8.32;2.72;;;;;;;25.63;44.96;101823.00;4993240;28;20089;-71
2022/08/27 09:08:18;;;;;;;6.28;2.72;;;;;;;25.58;45.32;101818.25;4984445;28;20045;-71
2022/08/27 09:10:51;;;;;;;7.32;2.72;;;;;;;25.64;45.38;101819.31;4997239;28;20109;-71
2022/08/27 09:13:24;;;;;;;7.28;3.22;;;;;;;25.60;45.32;101823.41;4998845;28;20042;-71
2022/08/27 09:16:02;;;;;;;6.65;2.70;;;;;;;25.63;45.19;101830.19;4997800;28;20183;-71
2022/08/27 09:18:28;;;;;;;6.93;2.45;;;;;;;25.64;45.40;101824.66;5001867;28;20486;-71
2022/08/27 09:21:21;;;;;;;5.00;2.40;;;;;;;25.66;45.23;101837.78;4985028;28;20046;-71
2022/08/27 09:23:50;;;;;;;6.07;2.47;;;;;;;25.67;45.48;101831.44;4967714;28;20108;-71
2022/08/27 09:26:21;;;;;;;6.47;2.30;;;;;;;25.66;45.30;101835.94;4998941;28;20026;-71
2022/08/27 09:31:35;;;;;;;7.63;2.35;;;;;;;25.67;45.54;101832.25;4965544;28;20057;-71
2022/08/27 09:34:03;;;;;;;4.72;2.20;;;;;;;25.64;45.45;101829.97;5001874;28;20045;-72
2022/08/27 09:36:29;;;;;;;5.07;2.30;;;;;;;25.71;44.93;101833.56;4999709;28;20081;-71
2022/08/27 09:39:00;;;;;;;4.55;2.30;;;;;;;25.70;44.72;101834.59;4998128;28;20440;-71
2022/08/27 09:41:29;;;;;;;4.50;2.47;;;;;;;25.71;44.76;101836.25;4999338;28;20265;-71
2022/08/27 09:44:01;;;;;;;5.80;2.83;;;;;;;25.73;44.82;101836.88;4982238;28;20091;-71
2022/08/27 09:46:27;;;;;;;5.70;2.40;;;;;;;25.71;44.88;101838.09;4984390;28;20147;-71
2022/08/27 09:48:53;;;;;;;6.10;2.13;;;;;;;25.71;45.17;101832.75;5000833;28;20545;-71
2022/08/27 09:51:24;;;;;;;6.95;2.67;;;;;;;25.72;44.76;101842.41;4997876;28;20052;-71
2022/08/27 09:53:58;;;;;;;6.30;2.40;;;;;;;25.73;45.15;101844.03;4995378;28;20400;-71
2022/08/27 09:56:30;;;;;;;7.28;2.28;;;;;;;25.73;44.83;101847.53;4997892;28;20121;-71
2022/08/27 09:59:09;;;;;;;4.18;2.50;;;;;;;25.70;44.99;101847.09;5001370;28;20054;-71
2022/08/27 10:01:50;;;;;;;5.45;2.60;;;;;;;25.69;44.72;101848.94;5002597;28;20041;-71
2022/08/27 10:04:22;;;;;;;5.90;2.65;;;;;;;25.63;45.40;101839.00;4999905;28;20080;-71
2022/08/27 10:06:50;;;;;;;4.95;2.55;;;;;;;25.65;45.22;101839.63;4985348;28;20034;-71
2022/08/27 10:09:30;;;;;;;5.32;2.45;;;;;;;25.71;44.79;101844.25;4998690;28;20146;-71
2022/08/27 10:12:07;;;;;;;5.28;2.30;;;;;;;25.66;45.03;101843.94;5002577;28;20033;-71
2022/08/27 10:14:52;;;;;;;5.18;2.20;;;;;;;25.69;45.25;101848.13;4975398;28;20038;-71
2022/08/27 10:17:37;;;;;;;5.55;2.33;;;;;;;25.67;45.35;101852.78;5004476;28;20117;-70
2022/08/27 10:20:08;;;;;;;7.60;2.65;;;;;;;25.70;45.21;101850.59;5002026;28;20057;-71
2022/08/27 10:22:40;;;;;;;6.25;2.13;;;;;;;25.70;45.12;101853.25;5005267;28;20491;-71
2022/08/27 10:25:20;;;;;;;5.53;2.45;;;;;;;25.71;45.32;101849.56;4999974;28;20559;-71
2022/08/27 10:28:21;;;;;;;5.93;2.38;;;;;;;25.69;44.99;101851.63;5004817;28;20172;-71
2022/08/27 10:31:01;;;;;;;4.90;2.17;;;;;;;25.72;45.27;101842.41;4938112;28;20456;-71
2022/08/27 10:33:42;;;;;;;6.65;2.35;;;;;;;25.72;45.03;101848.56;5002570;28;20041;-71
2022/08/27 10:36:35;;;;;;;5.05;2.38;;;;;;;25.77;44.65;101842.63;5002106;28;20537;-72
2022/08/27 10:39:22;;;;;;;5.18;2.53;;;;;;;25.72;45.45;101851.22;4997429;28;20033;-71
2022/08/27 10:42:06;;;;;;;6.07;2.92;;;;;;;25.70;45.13;101847.94;5001308;28;20454;-71
2022/08/27 10:44:57;;;;;;;4.95;2.45;;;;;;;25.71;45.39;101851.41;5001471;28;20042;-71
2022/08/27 10:47:46;;;;;;;4.35;2.30;;;;;;;25.71;44.72;101854.91;5000773;28;20476;-71
2022/08/27 10:50:30;;;;;;;5.28;2.83;;;;;;;25.73;44.84;101854.72;5001031;28;20077;-71
2022/08/27 10:53:07;;;;;;;7.35;2.83;;;;;;;25.67;45.19;101853.59;5003459;28;20076;-71
2022/08/27 10:55:40;;;;;;;5.57;2.10;;;;;;;25.73;44.90;101850.19;5003028;28;20064;-71
2022/08/27 10:58:18;;;;;;;5.70;2.50;;;;;;;25.71;45.00;101852.25;4999248;28;20399;-71
2022/08/27 11:01:04;;;;;;;5.22;2.60;;;;;;;25.74;45.08;101849.19;5002670;28;20033;-71
2022/08/27 11:03:36;;;;;;;5.45;2.40;;;;;;;25.76;44.75;101851.66;5003727;28;20370;-71
2022/08/27 11:06:27;;;;;;;7.13;2.70;;;;;;;25.70;45.01;101844.44;4998780;28;20082;-71
2022/08/27 11:08:59;;;;;;;4.68;2.78;;;;;;;25.71;45.03;101840.75;4998633;28;20042;-71
2022/08/27 11:11:36;;;;;;;6.13;2.45;;;;;;;25.70;44.87;101844.44;5000851;28;20050;-71
2022/08/27 11:14:07;;;;;;;7.22;2.53;;;;;;;25.69;45.18;101846.28;5002507;28;20640;-71
2022/08/27 11:16:38;;;;;;;7.05;2.58;;;;;;;25.72;44.85;101850.41;5003669;28;20103;-71
2022/08/27 11:19:26;;;;;;;3.42;2.13;;;;;;;25.70;45.25;101849.78;4996920;28;20053;-71
2022/08/27 11:22:21;;;;;;;5.63;2.10;;;;;;;25.71;44.95;101846.09;5000075;28;20611;-71
2022/08/27 11:25:00;;;;;;;5.22;2.40;;;;;;;25.75;44.78;101850.00;5001646;28;20041;-71
2022/08/27 11:27:30;;;;;;;7.35;2.58;;;;;;;25.71;45.20;101849.56;5000675;28;20045;-71
2022/08/27 11:30:01;;;;;;;3.95;2.10;;;;;;;25.71;44.82;101859.41;4986166;28;20046;-71
2022/08/27 11:32:42;;;;;;;5.60;2.60;;;;;;;25.72;44.90;101853.06;5002396;28;20773;-71
2022/08/27 11:35:18;;;;;;;5.95;2.35;;;;;;;25.71;45.06;101854.91;5003266;28;20499;-71
2022/08/27 11:38:15;;;;;;;4.88;2.30;;;;;;;25.72;44.86;101861.06;4985039;28;20136;-71
2022/08/27 11:40:52;;;;;;;3.20;2.33;;;;;;;25.74;44.91;101857.19;4999858;28;20042;-72
2022/08/27 11:43:22;;;;;;;6.68;2.20;;;;;;;25.67;45.34;101856.25;4998408;28;20033;-71
2022/08/27 11:45:55;;;;;;;10.30;3.03;;;;;;;25.72;44.63;101850.41;5003434;28;20491;-71